DucheSS Of Scandinavia — OUZI2 — position and weather

sailwx.info

Track history (hours):
 
Tides and Currents Weather Stations Pressure Air Temp Water Temp Dewpoint Dewpoint Depression Visibility Wind Speed Wind Dir Waves Ship Positions

DucheSS Of Scandinavia

Operator: DFDS A/S

Last reported at 2019-Jun-16 00:59 UTC. Time now 2019-Jun-16 01:23 UTC.
Position N 59°06' E 010°14'.

Length 134 m; draft 5.4 m.

Type: Passenger vessel. MMSI: 219002929.

Date/timePositionNaut miles runAvg speedWind from/ knotsBaromVisibWave heightAir tempDewpointWater temp
2019-Jun-16 00:59N 59°06' E 010°14'0 0.0
2019-Jun-16 00:29N 59°06' E 010°14'0 0.0
2019-Jun-15 23:59N 59°06' E 010°14'0 0.0
2019-Jun-15 23:30N 59°06' E 010°14'0 0.0
2019-Jun-15 23:00N 59°06' E 010°14'0 0.0
2019-Jun-15 22:30N 59°06' E 010°14'0 0.0
2019-Jun-15 21:58N 59°06' E 010°14'0 0.0
2019-Jun-15 21:28N 59°06' E 010°14'0 0.0
2019-Jun-15 20:59N 59°06' E 010°14'0 0.0
2019-Jun-15 20:29N 59°06' E 010°14'0 0.0
2019-Jun-15 19:59N 59°06' E 010°14'0 0.3
2019-Jun-15 19:30N 59°06' E 010°14'1 2.6
2019-Jun-15 19:01N 59°08' E 010°14'5 9.1
2019-Jun-15 18:30N 59°03' E 010°15'714.6
2019-Jun-15 18:00N 59°01' E 010°29'816.3
2019-Jun-15 17:30N 59°01' E 010°44'816.1
2019-Jun-15 17:00N 58°59' E 010°60'612.8
2019-Jun-15 16:30N 58°56' E 011°10'0 0.0
2019-Jun-15 16:00N 58°56' E 011°10'4 8.8
2019-Jun-15 15:31N 58°58' E 011°02'714.4
2019-Jun-15 15:00N 59°01' E 010°50'714.5
2019-Jun-15 14:30N 59°01' E 010°36'715.0
2019-Jun-15 14:01N 59°01' E 010°22'713.3
2019-Jun-15 13:30N 59°06' E 010°14'1 2.7
2019-Jun-15 13:01N 59°08' E 010°14'0 0.0
2019-Jun-15 12:30N 59°08' E 010°14'611.3
2019-Jun-15 12:00N 59°02' E 010°16'714.5
2019-Jun-15 11:30N 59°00' E 010°29'815.1
2019-Jun-15 11:00N 59°01' E 010°44'815.0
2019-Jun-15 10:30N 58°60' E 010°58'714.4
2019-Jun-15 10:00N 58°56' E 011°10'0 0.4
2019-Jun-15 09:30N 58°56' E 011°10'0 0.2
2019-Jun-15 09:00N 58°56' E 011°10'612.8
2019-Jun-15 08:31N 58°59' E 010°60'714.8
2019-Jun-15 08:00N 59°02' E 010°46'815.3
2019-Jun-15 07:30N 59°00' E 010°31'815.3
2019-Jun-15 07:01N 59°02' E 010°17'612.0
2019-Jun-15 06:30N 59°07' E 010°14'0 0.3
2019-Jun-15 06:00N 59°08' E 010°14'1 1.0
2019-Jun-15 05:30N 59°07' E 010°14'1 1.9
2019-Jun-15 05:00N 59°06' E 010°14'0 0.0
2019-Jun-15 04:30N 59°06' E 010°14'0 0.0
2019-Jun-15 03:58N 59°06' E 010°14'0 0.0
2019-Jun-15 03:28N 59°06' E 010°14'0 0.0
2019-Jun-15 02:58N 59°06' E 010°14'0 0.0
2019-Jun-15 02:29N 59°06' E 010°14'0 0.0
2019-Jun-15 01:59N 59°06' E 010°14'0 0.0
2019-Jun-15 01:29N 59°06' E 010°14'0 0.0
2019-Jun-15 00:57N 59°06' E 010°14'0 0.0
2019-Jun-15 00:30N 59°06' E 010°14'0 0.0
2019-Jun-15 00:00N 59°06' E 010°14'0 0.0
2019-Jun-14 23:28N 59°06' E 010°14'0 0.0
2019-Jun-14 22:58N 59°06' E 010°14'0 0.0
2019-Jun-14 22:28N 59°06' E 010°14'0 0.0
2019-Jun-14 21:59N 59°06' E 010°14'0 0.0
2019-Jun-14 21:29N 59°06' E 010°14'0 0.0
2019-Jun-14 20:59N 59°06' E 010°14'0 0.0
2019-Jun-14 20:30N 59°06' E 010°14'0 0.0
2019-Jun-14 20:00N 59°06' E 010°14'1 1.1
2019-Jun-14 19:31N 59°07' E 010°14'1 1.7
2019-Jun-14 19:00N 59°08' E 010°14'3 6.9
2019-Jun-14 18:30N 59°04' E 010°15'713.5
2019-Jun-14 18:01N 59°01' E 010°26'816.0
2019-Jun-14 17:31N 59°01' E 010°42'816.0
2019-Jun-14 17:00N 59°00' E 010°57'815.1
2019-Jun-14 16:30N 58°56' E 011°09'0 0.7
2019-Jun-14 16:01N 58°56' E 011°10'4 7.1
2019-Jun-14 15:30N 58°57' E 011°04'715.0
2019-Jun-14 15:01N 59°01' E 010°51'815.8
2019-Jun-14 14:30N 59°01' E 010°36'815.8
2019-Jun-14 14:00N 59°01' E 010°21'713.2
2019-Jun-14 13:30N 59°07' E 010°14'1 2.1
2019-Jun-14 13:01N 59°08' E 010°14'0 0.3
2019-Jun-14 12:30N 59°07' E 010°14'612.2
2019-Jun-14 12:00N 59°02' E 010°16'714.2
2019-Jun-14 11:30N 59°01' E 010°30'714.2
2019-Jun-14 11:00N 59°01' E 010°44'714.2
2019-Jun-14 10:30N 59°00' E 010°57'714.8
2019-Jun-14 10:01N 58°56' E 011°09'1 1.4
2019-Jun-14 09:31N 58°56' E 011°10'0 0.0
2019-Jun-14 09:00N 58°56' E 011°10'612.8
2019-Jun-14 08:30N 58°59' E 010°59'714.9
2019-Jun-14 08:01N 59°02' E 010°46'815.1
2019-Jun-14 07:30N 59°01' E 010°31'815.4
2019-Jun-14 07:01N 59°01' E 010°16'612.1
2019-Jun-14 06:30N 59°07' E 010°14'0 0.4
2019-Jun-14 06:00N 59°08' E 010°14'1 2.8
2019-Jun-14 05:30N 59°06' E 010°14'0 0.2
2019-Jun-14 04:59N 59°06' E 010°14'0 0.0
2019-Jun-14 04:29N 59°06' E 010°14'0 0.0
2019-Jun-14 03:59N 59°06' E 010°14'0 0.0
2019-Jun-14 03:30N 59°06' E 010°14'0 0.0
2019-Jun-14 03:00N 59°06' E 010°14'0 0.0
2019-Jun-14 02:30N 59°06' E 010°14'0 0.0
2019-Jun-14 01:58N 59°06' E 010°14'0 0.0
2019-Jun-14 01:28N 59°06' E 010°14'0 0.0
2019-Jun-14 00:58N 59°06' E 010°14'0 0.0
2019-Jun-14 00:29N 59°06' E 010°14'0 0.0
2019-Jun-13 23:59N 59°06' E 010°14'0 0.0
2019-Jun-13 23:29N 59°06' E 010°14'0 0.0
2019-Jun-13 23:00N 59°06' E 010°14'0 0.0
2019-Jun-13 22:30N 59°06' E 010°14'0 0.0
2019-Jun-13 22:00N 59°06' E 010°14'0 0.0
2019-Jun-13 21:28N 59°06' E 010°14'0 0.0
2019-Jun-13 20:58N 59°06' E 010°14'0 0.0
2019-Jun-13 20:28N 59°06' E 010°14'0 0.0
2019-Jun-13 19:59N 59°06' E 010°14'0 0.3
2019-Jun-13 19:29N 59°06' E 010°14'1 2.6
2019-Jun-13 19:00N 59°08' E 010°14'3 6.7
2019-Jun-13 18:31N 59°04' E 010°15'713.8
2019-Jun-13 18:01N 59°01' E 010°26'816.1
2019-Jun-13 17:31N 59°01' E 010°42'816.0
2019-Jun-13 17:01N 59°00' E 010°57'815.1
2019-Jun-13 16:30N 58°56' E 011°10'0 0.5
2019-Jun-13 16:01N 58°56' E 011°10'4 8.5
2019-Jun-13 15:30N 58°58' E 011°03'714.5
2019-Jun-13 15:01N 59°01' E 010°50'714.9
2019-Jun-13 14:31N 59°01' E 010°36'815.1
2019-Jun-13 14:01N 59°01' E 010°21'713.1
2019-Jun-13 13:31N 59°06' E 010°14'1 2.5
2019-Jun-13 13:00N 59°08' E 010°14'0 0.0
2019-Jun-13 12:31N 59°08' E 010°14'611.9
2019-Jun-13 12:01N 59°02' E 010°16'815.8
2019-Jun-13 11:31N 59°00' E 010°31'815.7
2019-Jun-13 11:01N 59°02' E 010°46'815.4
2019-Jun-13 10:31N 58°59' E 011°00'611.9
2019-Jun-13 10:00N 58°56' E 011°10'0 0.0
2019-Jun-13 09:30N 58°56' E 011°10'0 0.1
2019-Jun-13 09:00N 58°56' E 011°10'612.5
2019-Jun-13 08:31N 58°59' E 010°60'815.4
2019-Jun-13 08:01N 59°02' E 010°46'714.9
2019-Jun-13 07:31N 59°00' E 010°31'714.9
2019-Jun-13 07:01N 59°01' E 010°17'612.4
2019-Jun-13 06:30N 59°07' E 010°14'0 0.4
2019-Jun-13 06:00N 59°08' E 010°14'1 2.7
2019-Jun-13 05:30N 59°06' E 010°14'0 0.2
2019-Jun-13 05:01N 59°06' E 010°14'0 0.0
2019-Jun-13 04:31N 59°06' E 010°14'0 0.0
2019-Jun-13 04:01N 59°06' E 010°14'0 0.0
2019-Jun-13 03:31N 59°06' E 010°14'0 0.0
2019-Jun-13 03:01N 59°06' E 010°14'0 0.0
2019-Jun-13 02:31N 59°06' E 010°14'0 0.0
2019-Jun-13 02:01N 59°06' E 010°14'0 0.0
2019-Jun-13 01:31N 59°06' E 010°14'0 0.0
2019-Jun-13 01:01N 59°06' E 010°14'0 0.0
2019-Jun-13 00:31N 59°06' E 010°14'0 0.0
2019-Jun-13 00:01N 59°06' E 010°14'0 0.0
2019-Jun-12 23:31N 59°06' E 010°14'0 0.0
2019-Jun-12 23:01N 59°06' E 010°14'0 0.0
2019-Jun-12 22:31N 59°06' E 010°14'0 0.0
2019-Jun-12 22:01N 59°06' E 010°14'0 0.0
2019-Jun-12 21:30N 59°06' E 010°14'0 0.0
2019-Jun-12 21:00N 59°06' E 010°14'0 0.0
2019-Jun-12 20:31N 59°06' E 010°14'0 0.0
2019-Jun-12 20:00N 59°06' E 010°14'1 1.3
2019-Jun-12 19:31N 59°07' E 010°14'1 1.6
2019-Jun-12 19:01N 59°08' E 010°14'4 7.5
2019-Jun-12 18:31N 59°04' E 010°15'714.4
2019-Jun-12 18:01N 59°01' E 010°27'917.0
2019-Jun-12 17:31N 59°01' E 010°44'816.2
2019-Jun-12 17:01N 58°59' E 010°59'713.1
2019-Jun-12 16:30N 58°56' E 011°10'0 0.0
2019-Jun-12 16:00N 58°56' E 011°10'4 8.0
2019-Jun-12 15:30N 58°57' E 011°03'714.4
2019-Jun-12 15:01N 59°01' E 010°51'714.6
2019-Jun-12 14:31N 59°01' E 010°37'714.4
2019-Jun-12 14:01N 59°01' E 010°23'612.9
2019-Jun-12 13:30N 59°06' E 010°14'2 4.2
2019-Jun-12 13:01N 59°08' E 010°14'0 0.0
2019-Jun-12 12:31N 59°08' E 010°14'611.1
2019-Jun-12 12:01N 59°02' E 010°16'714.7
2019-Jun-12 11:31N 59°01' E 010°30'815.6
2019-Jun-12 11:00N 59°02' E 010°45'714.7
2019-Jun-12 10:30N 58°60' E 010°58'713.8
2019-Jun-12 10:01N 58°56' E 011°09'1 1.1
2019-Jun-12 09:31N 58°56' E 011°10'0 0.0
2019-Jun-12 09:01N 58°56' E 011°10'612.0
2019-Jun-12 08:31N 58°59' E 011°00'815.2
2019-Jun-12 08:01N 59°02' E 010°46'815.1
2019-Jun-12 07:31N 59°01' E 010°32'714.7
2019-Jun-12 07:01N 59°01' E 010°18'612.3
2019-Jun-12 06:30N 59°07' E 010°14'0 0.6
2019-Jun-12 06:00N 59°08' E 010°14'1 1.8
2019-Jun-12 05:31N 59°07' E 010°14'1 1.1
2019-Jun-12 05:00N 59°06' E 010°14'0 0.0
2019-Jun-12 04:28N 59°06' E 010°14'0 0.0
2019-Jun-12 03:59N 59°06' E 010°14'0 0.0
2019-Jun-12 03:29N 59°06' E 010°14'0 0.0
2019-Jun-12 02:59N 59°06' E 010°14'0 0.0
2019-Jun-12 02:00N 59°06' E 010°14'0 0.0
2019-Jun-12 01:30N 59°06' E 010°14'0 0.0
2019-Jun-12 00:58N 59°06' E 010°14'0 0.0
2019-Jun-12 00:28N 59°06' E 010°14'0 0.0
2019-Jun-11 23:58N 59°06' E 010°14'0 0.0
2019-Jun-11 23:29N 59°06' E 010°14'0 0.0
2019-Jun-11 22:59N 59°06' E 010°14'0 0.0
2019-Jun-11 22:29N 59°06' E 010°14'0 0.0
2019-Jun-11 22:00N 59°06' E 010°14'0 0.0
2019-Jun-11 21:30N 59°06' E 010°14'0 0.0
2019-Jun-11 21:00N 59°06' E 010°14'0 0.0
2019-Jun-11 20:28N 59°06' E 010°14'0 0.0
2019-Jun-11 20:01N 59°06' E 010°14'1 2.8
2019-Jun-11 19:30N 59°08' E 010°14'0 0.0
2019-Jun-11 19:01N 59°08' E 010°14'5 9.4
2019-Jun-11 18:30N 59°03' E 010°15'714.3
2019-Jun-11 18:01N 59°01' E 010°28'815.4
2019-Jun-11 17:31N 59°02' E 010°43'815.3
2019-Jun-11 17:01N 58°60' E 010°58'714.1
2019-Jun-11 16:30N 58°56' E 011°09'1 1.4
2019-Jun-11 16:01N 58°56' E 011°10'4 7.8
2019-Jun-11 15:30N 58°57' E 011°03'714.6
2019-Jun-11 15:00N 59°01' E 010°51'714.7
2019-Jun-11 14:30N 59°01' E 010°37'815.2
2019-Jun-11 14:00N 59°01' E 010°22'612.5
2019-Jun-11 13:30N 59°06' E 010°14'2 3.6
2019-Jun-11 13:00N 59°08' E 010°14'0 0.4
2019-Jun-11 12:31N 59°07' E 010°14'611.1
2019-Jun-11 12:01N 59°02' E 010°16'714.2
2019-Jun-11 11:30N 59°00' E 010°29'714.3
2019-Jun-11 11:01N 59°02' E 010°43'714.3
2019-Jun-11 10:31N 59°00' E 010°57'714.4
2019-Jun-11 10:00N 58°56' E 011°08'1 2.1
2019-Jun-11 09:30N 58°56' E 011°10'0 0.3
2019-Jun-11 09:00N 58°56' E 011°10'613.0
2019-Jun-11 08:30N 58°59' E 010°59'815.4
2019-Jun-11 08:01N 59°02' E 010°46'815.0
2019-Jun-11 07:31N 59°00' E 010°31'714.4
2019-Jun-11 07:01N 59°01' E 010°17'612.3
2019-Jun-11 06:31N 59°07' E 010°14'0 0.9
2019-Jun-11 06:01N 59°08' E 010°14'1 1.3
2019-Jun-11 05:31N 59°07' E 010°14'1 1.5
2019-Jun-11 04:58N 59°06' E 010°14'0 0.0
2019-Jun-11 04:28N 59°06' E 010°14'0 0.0
2019-Jun-11 03:59N 59°06' E 010°14'0 0.0
2019-Jun-11 03:29N 59°06' E 010°14'0 0.0
2019-Jun-11 02:59N 59°06' E 010°14'0 0.0
2019-Jun-11 02:30N 59°06' E 010°14'0 0.0
2019-Jun-11 02:00N 59°06' E 010°14'0 0.0
2019-Jun-11 01:30N 59°06' E 010°14'0 0.0
2019-Jun-11 00:55N 59°06' E 010°14'0 0.0
2019-Jun-11 00:28N 59°06' E 010°14'0 0.0
2019-Jun-10 23:58N 59°06' E 010°14'0 0.0
2019-Jun-10 23:29N 59°06' E 010°14'0 0.0
2019-Jun-10 22:59N 59°06' E 010°14'0 0.0
2019-Jun-10 22:29N 59°06' E 010°14'0 0.0
2019-Jun-10 22:00N 59°06' E 010°14'0 0.0
2019-Jun-10 21:30N 59°06' E 010°14'0 0.0
2019-Jun-10 21:00N 59°06' E 010°14'0 0.0
2019-Jun-10 20:28N 59°06' E 010°14'0 0.0
2019-Jun-10 19:58N 59°06' E 010°14'0 0.7
2019-Jun-10 19:31N 59°06' E 010°14'1 2.2
2019-Jun-10 19:00N 59°08' E 010°14'5 9.7
2019-Jun-10 18:30N 59°03' E 010°15'714.5
2019-Jun-10 18:00N 59°01' E 010°29'815.7
2019-Jun-10 17:30N 59°02' E 010°44'815.8
2019-Jun-10 17:00N 58°60' E 010°59'713.8
2019-Jun-10 16:30N 58°56' E 011°10'0 0.3
2019-Jun-10 16:00N 58°56' E 011°10'3 5.6
2019-Jun-10 15:30N 58°56' E 011°05'815.8
2019-Jun-10 15:00N 59°01' E 010°52'816.4
2019-Jun-10 14:31N 59°01' E 010°36'816.3
2019-Jun-10 14:01N 59°01' E 010°20'713.2
2019-Jun-10 13:31N 59°07' E 010°14'1 2.0
2019-Jun-10 13:00N 59°08' E 010°14'0 0.5
2019-Jun-10 12:30N 59°07' E 010°14'612.3
2019-Jun-10 12:01N 59°02' E 010°17'815.7
2019-Jun-10 11:31N 59°01' E 010°33'815.4
2019-Jun-10 11:01N 59°02' E 010°47'815.6
2019-Jun-10 10:30N 58°59' E 011°01'510.8
2019-Jun-10 10:00N 58°56' E 011°10'0 0.0
2019-Jun-10 09:30N 58°56' E 011°10'0 0.0
2019-Jun-10 09:00N 58°56' E 011°10'612.5
2019-Jun-10 08:30N 58°59' E 011°00'714.5
2019-Jun-10 08:01N 59°02' E 010°47'815.2
2019-Jun-10 07:31N 59°00' E 010°32'815.4
2019-Jun-10 07:00N 59°01' E 010°17'612.5
2019-Jun-10 06:30N 59°07' E 010°14'0 0.5
2019-Jun-10 06:00N 59°08' E 010°14'0 0.1
2019-Jun-10 05:30N 59°08' E 010°14'1 2.7
2019-Jun-10 05:00N 59°06' E 010°14'0 0.0
2019-Jun-10 04:30N 59°06' E 010°14'0 0.0
2019-Jun-10 04:00N 59°06' E 010°14'0 0.0
2019-Jun-10 03:28N 59°06' E 010°14'0 0.0
2019-Jun-10 02:58N 59°06' E 010°14'0 0.0
2019-Jun-10 02:28N 59°06' E 010°14'0 0.0
2019-Jun-10 01:59N 59°06' E 010°14'0 0.0
2019-Jun-10 01:29N 59°06' E 010°14'0 0.0
2019-Jun-10 00:59N 59°06' E 010°14'0 0.0
2019-Jun-10 00:30N 59°06' E 010°14'0 0.0
2019-Jun-10 00:00N 59°06' E 010°14'0 0.0
2019-Jun-09 23:30N 59°06' E 010°14'0 0.0
2019-Jun-09 22:58N 59°06' E 010°14'0 0.0
2019-Jun-09 22:28N 59°06' E 010°14'0 0.0
2019-Jun-09 21:58N 59°06' E 010°14'0 0.0
2019-Jun-09 21:29N 59°06' E 010°14'0 0.0
2019-Jun-09 20:59N 59°06' E 010°14'0 0.0
2019-Jun-09 20:29N 59°06' E 010°14'0 0.0
2019-Jun-09 20:00N 59°06' E 010°14'1 2.9
2019-Jun-09 19:30N 59°08' E 010°14'2 4.9
2019-Jun-09 19:00N 59°05' E 010°14'714.4
2019-Jun-09 18:31N 58°60' E 010°24'714.5
2019-Jun-09 18:01N 58°60' E 010°38'713.3
2019-Jun-09 17:31N 59°01' E 010°50'816.1
2019-Jun-09 17:00N 58°57' E 011°04'3 6.9
2019-Jun-09 16:30N 58°56' E 011°10'0 0.0
2019-Jun-09 16:00N 58°56' E 011°10'510.0
2019-Jun-09 15:30N 58°58' E 011°02'815.6
2019-Jun-09 15:00N 59°02' E 010°48'816.7
2019-Jun-09 14:31N 58°59' E 010°33'816.2
2019-Jun-09 14:00N 59°01' E 010°18'713.0
2019-Jun-09 13:30N 59°07' E 010°14'0 0.9
2019-Jun-09 13:00N 59°08' E 010°14'0 0.4
2019-Jun-09 12:30N 59°07' E 010°14'612.1
2019-Jun-09 12:01N 59°02' E 010°16'714.7
2019-Jun-09 11:31N 58°60' E 010°30'714.8
2019-Jun-09 11:01N 59°02' E 010°44'815.6
2019-Jun-09 10:31N 58°60' E 010°59'713.7
2019-Jun-09 10:00N 58°56' E 011°10'0 0.1
2019-Jun-09 09:31N 58°56' E 011°10'0 0.5
2019-Jun-09 09:00N 58°56' E 011°10'713.5
2019-Jun-09 08:31N 58°60' E 010°59'714.6
2019-Jun-09 08:01N 59°01' E 010°45'714.4
2019-Jun-09 07:31N 58°60' E 010°32'715.0
2019-Jun-09 07:01N 59°01' E 010°17'612.2
2019-Jun-09 06:30N 59°07' E 010°14'0 0.4
2019-Jun-09 06:01N 59°08' E 010°14'0 0.2
2019-Jun-09 05:30N 59°07' E 010°14'1 2.7
2019-Jun-09 05:00N 59°06' E 010°14'0 0.0
2019-Jun-09 04:00N 59°06' E 010°14'0 0.0
2019-Jun-09 03:30N 59°06' E 010°14'0 0.0
2019-Jun-09 03:00N 59°06' E 010°14'0 0.0
2019-Jun-09 02:28N 59°06' E 010°14'0 0.0
2019-Jun-09 01:58N 59°06' E 010°14'0 0.0
2019-Jun-09 01:28N 59°06' E 010°14'0 0.0
2019-Jun-09 00:59N 59°06' E 010°14'0 0.0
2019-Jun-09 00:29N 59°06' E 010°14'0 0.0
2019-Jun-08 23:59N 59°06' E 010°14'0 0.0
2019-Jun-08 23:30N 59°06' E 010°14'0 0.0
2019-Jun-08 23:00N 59°06' E 010°14'0 0.0
2019-Jun-08 22:30N 59°06' E 010°14'0 0.0
2019-Jun-08 21:58N 59°06' E 010°14'0 0.0
2019-Jun-08 21:28N 59°06' E 010°14'0 0.0
2019-Jun-08 20:58N 59°06' E 010°14'0 0.0
2019-Jun-08 20:29N 59°06' E 010°14'0 0.0
2019-Jun-08 19:59N 59°06' E 010°14'1 1.2
2019-Jun-08 19:30N 59°07' E 010°14'1 1.6
2019-Jun-08 19:00N 59°08' E 010°14'611.9
2019-Jun-08 18:31N 59°02' E 010°16'816.2
2019-Jun-08 18:01N 59°00' E 010°32'815.7
2019-Jun-08 17:31N 59°02' E 010°47'816.2
2019-Jun-08 17:00N 58°59' E 011°01'611.2
2019-Jun-08 16:31N 58°56' E 011°10'0 0.0
2019-Jun-08 16:01N 58°56' E 011°10'4 8.5
2019-Jun-08 15:31N 58°58' E 011°03'714.5
2019-Jun-08 15:01N 59°01' E 010°50'815.2
2019-Jun-08 14:31N 59°01' E 010°36'260519.4
2019-Jun-08 14:00N 59°01' E 002°10'249495.0
2019-Jun-08 13:30N 59°07' E 010°14'1 2.0
2019-Jun-08 13:00N 59°08' E 010°14'0 0.4
2019-Jun-08 12:30N 59°07' E 010°14'611.8
2019-Jun-08 12:00N 59°02' E 010°16'714.9
2019-Jun-08 11:30N 59°00' E 010°31'714.9
2019-Jun-08 11:00N 59°02' E 010°45'714.7
2019-Jun-08 10:30N 58°60' E 010°59'713.6
2019-Jun-08 10:00N 58°56' E 011°09'0 0.7
2019-Jun-08 09:30N 58°56' E 011°10'0 0.1
2019-Jun-08 09:00N 58°56' E 011°10'612.6
2019-Jun-08 08:31N 58°59' E 010°60'715.0
2019-Jun-08 08:01N 59°02' E 010°46'815.8
2019-Jun-08 07:30N 59°00' E 010°31'815.6
2019-Jun-08 07:01N 59°02' E 010°16'611.6
2019-Jun-08 06:30N 59°08' E 010°14'0 0.1
2019-Jun-08 06:00N 59°08' E 010°14'1 1.5
2019-Jun-08 05:30N 59°07' E 010°14'1 1.4
2019-Jun-08 05:00N 59°06' E 010°14'0 0.0
2019-Jun-08 04:30N 59°06' E 010°14'0 0.0
2019-Jun-08 04:00N 59°06' E 010°14'0 0.0
2019-Jun-08 03:28N 59°06' E 010°14'0 0.0
2019-Jun-08 02:58N 59°06' E 010°14'0 0.0
2019-Jun-08 02:28N 59°06' E 010°14'0 0.0
2019-Jun-08 01:59N 59°06' E 010°14'0 0.0
2019-Jun-08 01:29N 59°06' E 010°14'0 0.0
2019-Jun-08 00:59N 59°06' E 010°14'0 0.0
2019-Jun-08 00:30N 59°06' E 010°14'0 0.0
2019-Jun-08 00:00N 59°06' E 010°14'0 0.0
2019-Jun-07 23:30N 59°06' E 010°14'0 0.0
2019-Jun-07 22:58N 59°06' E 010°14'0 0.0
2019-Jun-07 22:28N 59°06' E 010°14'0 0.0
2019-Jun-07 21:58N 59°06' E 010°14'0 0.0
2019-Jun-07 21:29N 59°06' E 010°14'0 0.0
2019-Jun-07 20:59N 59°06' E 010°14'0 0.0
2019-Jun-07 20:29N 59°06' E 010°14'0 0.0
2019-Jun-07 20:00N 59°06' E 010°14'1 2.7
2019-Jun-07 19:30N 59°07' E 010°14'0 0.1
2019-Jun-07 19:00N 59°08' E 010°14'611.7
2019-Jun-07 18:31N 59°02' E 010°16'815.7
2019-Jun-07 18:01N 59°01' E 010°31'815.3
2019-Jun-07 17:31N 59°02' E 010°45'815.0
2019-Jun-07 17:00N 58°60' E 010°59'713.1
2019-Jun-07 16:30N 58°56' E 011°10'0 0.5
2019-Jun-07 16:00N 58°56' E 011°10'4 9.1
2019-Jun-07 15:30N 58°58' E 011°02'816.0
2019-Jun-07 15:00N 59°02' E 010°48'816.5
2019-Jun-07 14:30N 59°01' E 010°33'815.9
2019-Jun-07 14:00N 59°01' E 010°17'612.2
2019-Jun-07 13:30N 59°07' E 010°14'0 0.5
2019-Jun-07 13:01N 59°08' E 010°14'0 0.2
2019-Jun-07 12:30N 59°07' E 010°14'612.1
2019-Jun-07 12:01N 59°02' E 010°16'815.0
2019-Jun-07 11:30N 59°00' E 010°31'714.7
2019-Jun-07 11:00N 59°02' E 010°45'714.3
2019-Jun-07 10:30N 58°60' E 010°58'713.8
2019-Jun-07 10:00N 58°56' E 011°09'1 1.5
2019-Jun-07 09:31N 58°56' E 011°10'0 0.3
2019-Jun-07 09:00N 58°56' E 011°10'713.2
2019-Jun-07 08:30N 58°59' E 010°59'714.6
2019-Jun-07 08:00N 59°02' E 010°45'714.9
2019-Jun-07 07:30N 59°01' E 010°31'714.6
2019-Jun-07 07:00N 59°01' E 010°17'612.2
2019-Jun-07 06:30N 59°07' E 010°14'0 0.5
2019-Jun-07 06:00N 59°08' E 010°14'1 2.0
2019-Jun-07 05:30N 59°07' E 010°14'0 0.7
2019-Jun-07 04:57N 59°06' E 010°14'0 0.0
2019-Jun-07 04:30N 59°06' E 010°14'0 0.0
2019-Jun-07 04:00N 59°06' E 010°14'0 0.0
2019-Jun-07 03:28N 59°06' E 010°14'0 0.0
2019-Jun-07 02:58N 59°06' E 010°14'0 0.0
2019-Jun-07 02:25N 59°06' E 010°14'0 0.0
2019-Jun-07 01:59N 59°06' E 010°14'0 0.0
2019-Jun-07 01:29N 59°06' E 010°14'0 0.0
2019-Jun-07 00:56N 59°06' E 010°14'0 0.0
2019-Jun-07 00:27N 59°06' E 010°14'0 0.0
2019-Jun-07 00:00N 59°06' E 010°14'0 0.0
2019-Jun-06 23:30N 59°06' E 010°14'0 0.0
2019-Jun-06 22:58N 59°06' E 010°14'0 0.0
2019-Jun-06 22:28N 59°06' E 010°14'0 0.0
2019-Jun-06 21:58N 59°06' E 010°14'0 0.0
2019-Jun-06 21:29N 59°06' E 010°14'0 0.0
2019-Jun-06 20:59N 59°06' E 010°14'0 0.0
2019-Jun-06 20:29N 59°06' E 010°14'0 0.0
2019-Jun-06 20:00N 59°06' E 010°14'0 0.2
2019-Jun-06 19:30N 59°06' E 010°14'1 2.7
2019-Jun-06 19:00N 59°08' E 010°14'5 9.3
2019-Jun-06 18:30N 59°03' E 010°15'815.6
2019-Jun-06 18:00N 59°00' E 010°29'816.7
2019-Jun-06 17:30N 59°02' E 010°45'816.4
2019-Jun-06 17:00N 58°59' E 011°00'612.1
2019-Jun-06 16:30N 58°56' E 011°10'0 0.0
2019-Jun-06 16:00N 58°56' E 011°10'4 8.3
2019-Jun-06 15:30N 58°58' E 011°03'714.6
2019-Jun-06 15:01N 59°01' E 010°50'714.8
2019-Jun-06 14:30N 59°01' E 010°36'815.1
2019-Jun-06 14:01N 59°01' E 010°21'612.6
2019-Jun-06 13:30N 59°06' E 010°14'2 3.2
2019-Jun-06 13:01N 59°08' E 010°14'0 0.2
2019-Jun-06 12:30N 59°07' E 010°14'510.9
2019-Jun-06 12:01N 59°02' E 010°15'714.6
2019-Jun-06 11:30N 59°01' E 010°29'714.6
2019-Jun-06 11:01N 59°01' E 010°43'713.9
2019-Jun-06 10:30N 59°00' E 010°57'714.1
2019-Jun-06 10:00N 58°56' E 011°08'1 2.4
2019-Jun-06 09:31N 58°56' E 011°10'0 0.1
2019-Jun-06 09:01N 58°56' E 011°10'612.6
2019-Jun-06 08:31N 58°59' E 010°60'815.0
2019-Jun-06 08:00N 59°02' E 010°46'714.8
2019-Jun-06 07:30N 59°00' E 010°32'714.6
2019-Jun-06 07:01N 59°01' E 010°18'612.4
2019-Jun-06 06:30N 59°07' E 010°14'0 0.7
2019-Jun-06 06:00N 59°08' E 010°14'1 2.6
2019-Jun-06 05:31N 59°06' E 010°14'0 0.3
2019-Jun-06 04:59N 59°06' E 010°14'0 0.0
2019-Jun-06 04:26N 59°06' E 010°14'0 0.0
2019-Jun-06 03:57N 59°06' E 010°14'0 0.0
2019-Jun-06 03:30N 59°06' E 010°14'0 0.0
2019-Jun-06 02:57N 59°06' E 010°14'0 0.0
2019-Jun-06 02:28N 59°06' E 010°14'0 0.0
2019-Jun-06 01:58N 59°06' E 010°14'0 0.0
2019-Jun-06 01:28N 59°06' E 010°14'  
Track history (hours):
 
Tides and Currents Weather Stations Pressure Air Temp Water Temp Dewpoint Dewpoint Depression Visibility Wind Speed Wind Dir Waves Ship Positions

DucheSS Of Scandinavia

Operator: DFDS A/S

Last reported at 2019-Jun-16 00:59 UTC. Time now 2019-Jun-16 01:23 UTC.
Position N 59°06' E 010°14'.

Length 134 m; draft 5.4 m.

Type: Passenger vessel. MMSI: 219002929.

Date/timePositionNaut miles runAvg speedWind from/ knotsBaromVisibWave heightAir tempDewpointWater temp
2019-Jun-16 00:59N 59°06' E 010°14'0 0.0
2019-Jun-16 00:29N 59°06' E 010°14'0 0.0
2019-Jun-15 23:59N 59°06' E 010°14'0 0.0
2019-Jun-15 23:30N 59°06' E 010°14'0 0.0
2019-Jun-15 23:00N 59°06' E 010°14'0 0.0
2019-Jun-15 22:30N 59°06' E 010°14'0 0.0
2019-Jun-15 21:58N 59°06' E 010°14'0 0.0
2019-Jun-15 21:28N 59°06' E 010°14'0 0.0
2019-Jun-15 20:59N 59°06' E 010°14'0 0.0
2019-Jun-15 20:29N 59°06' E 010°14'0 0.0
2019-Jun-15 19:59N 59°06' E 010°14'0 0.3
2019-Jun-15 19:30N 59°06' E 010°14'1 2.6
2019-Jun-15 19:01N 59°08' E 010°14'5 9.1
2019-Jun-15 18:30N 59°03' E 010°15'714.6
2019-Jun-15 18:00N 59°01' E 010°29'816.3
2019-Jun-15 17:30N 59°01' E 010°44'816.1
2019-Jun-15 17:00N 58°59' E 010°60'612.8
2019-Jun-15 16:30N 58°56' E 011°10'0 0.0
2019-Jun-15 16:00N 58°56' E 011°10'4 8.8
2019-Jun-15 15:31N 58°58' E 011°02'714.4
2019-Jun-15 15:00N 59°01' E 010°50'714.5
2019-Jun-15 14:30N 59°01' E 010°36'715.0
2019-Jun-15 14:01N 59°01' E 010°22'713.3
2019-Jun-15 13:30N 59°06' E 010°14'1 2.7
2019-Jun-15 13:01N 59°08' E 010°14'0 0.0
2019-Jun-15 12:30N 59°08' E 010°14'611.3
2019-Jun-15 12:00N 59°02' E 010°16'714.5
2019-Jun-15 11:30N 59°00' E 010°29'815.1
2019-Jun-15 11:00N 59°01' E 010°44'815.0
2019-Jun-15 10:30N 58°60' E 010°58'714.4
2019-Jun-15 10:00N 58°56' E 011°10'0 0.4
2019-Jun-15 09:30N 58°56' E 011°10'0 0.2
2019-Jun-15 09:00N 58°56' E 011°10'612.8
2019-Jun-15 08:31N 58°59' E 010°60'714.8
2019-Jun-15 08:00N 59°02' E 010°46'815.3
2019-Jun-15 07:30N 59°00' E 010°31'815.3
2019-Jun-15 07:01N 59°02' E 010°17'612.0
2019-Jun-15 06:30N 59°07' E 010°14'0 0.3
2019-Jun-15 06:00N 59°08' E 010°14'1 1.0
2019-Jun-15 05:30N 59°07' E 010°14'1 1.9
2019-Jun-15 05:00N 59°06' E 010°14'0 0.0
2019-Jun-15 04:30N 59°06' E 010°14'0 0.0
2019-Jun-15 03:58N 59°06' E 010°14'0 0.0
2019-Jun-15 03:28N 59°06' E 010°14'0 0.0
2019-Jun-15 02:58N 59°06' E 010°14'0 0.0
2019-Jun-15 02:29N 59°06' E 010°14'0 0.0
2019-Jun-15 01:59N 59°06' E 010°14'0 0.0
2019-Jun-15 01:29N 59°06' E 010°14'0 0.0
2019-Jun-15 00:57N 59°06' E 010°14'0 0.0
2019-Jun-15 00:30N 59°06' E 010°14'0 0.0
2019-Jun-15 00:00N 59°06' E 010°14'0 0.0
2019-Jun-14 23:28N 59°06' E 010°14'0 0.0
2019-Jun-14 22:58N 59°06' E 010°14'0 0.0
2019-Jun-14 22:28N 59°06' E 010°14'0 0.0
2019-Jun-14 21:59N 59°06' E 010°14'0 0.0
2019-Jun-14 21:29N 59°06' E 010°14'0 0.0
2019-Jun-14 20:59N 59°06' E 010°14'0 0.0
2019-Jun-14 20:30N 59°06' E 010°14'0 0.0
2019-Jun-14 20:00N 59°06' E 010°14'1 1.1
2019-Jun-14 19:31N 59°07' E 010°14'1 1.7
2019-Jun-14 19:00N 59°08' E 010°14'3 6.9
2019-Jun-14 18:30N 59°04' E 010°15'713.5
2019-Jun-14 18:01N 59°01' E 010°26'816.0
2019-Jun-14 17:31N 59°01' E 010°42'816.0
2019-Jun-14 17:00N 59°00' E 010°57'815.1
2019-Jun-14 16:30N 58°56' E 011°09'0 0.7
2019-Jun-14 16:01N 58°56' E 011°10'4 7.1
2019-Jun-14 15:30N 58°57' E 011°04'715.0
2019-Jun-14 15:01N 59°01' E 010°51'815.8
2019-Jun-14 14:30N 59°01' E 010°36'815.8
2019-Jun-14 14:00N 59°01' E 010°21'713.2
2019-Jun-14 13:30N 59°07' E 010°14'1 2.1
2019-Jun-14 13:01N 59°08' E 010°14'0 0.3
2019-Jun-14 12:30N 59°07' E 010°14'612.2
2019-Jun-14 12:00N 59°02' E 010°16'714.2
2019-Jun-14 11:30N 59°01' E 010°30'714.2
2019-Jun-14 11:00N 59°01' E 010°44'714.2
2019-Jun-14 10:30N 59°00' E 010°57'714.8
2019-Jun-14 10:01N 58°56' E 011°09'1 1.4
2019-Jun-14 09:31N 58°56' E 011°10'0 0.0
2019-Jun-14 09:00N 58°56' E 011°10'612.8
2019-Jun-14 08:30N 58°59' E 010°59'714.9
2019-Jun-14 08:01N 59°02' E 010°46'815.1
2019-Jun-14 07:30N 59°01' E 010°31'815.4
2019-Jun-14 07:01N 59°01' E 010°16'612.1
2019-Jun-14 06:30N 59°07' E 010°14'0 0.4
2019-Jun-14 06:00N 59°08' E 010°14'1 2.8
2019-Jun-14 05:30N 59°06' E 010°14'0 0.2
2019-Jun-14 04:59N 59°06' E 010°14'0 0.0
2019-Jun-14 04:29N 59°06' E 010°14'0 0.0
2019-Jun-14 03:59N 59°06' E 010°14'0 0.0
2019-Jun-14 03:30N 59°06' E 010°14'0 0.0
2019-Jun-14 03:00N 59°06' E 010°14'0 0.0
2019-Jun-14 02:30N 59°06' E 010°14'0 0.0
2019-Jun-14 01:58N 59°06' E 010°14'0 0.0
2019-Jun-14 01:28N 59°06' E 010°14'0 0.0
2019-Jun-14 00:58N 59°06' E 010°14'0 0.0
2019-Jun-14 00:29N 59°06' E 010°14'0 0.0
2019-Jun-13 23:59N 59°06' E 010°14'0 0.0
2019-Jun-13 23:29N 59°06' E 010°14'0 0.0
2019-Jun-13 23:00N 59°06' E 010°14'0 0.0
2019-Jun-13 22:30N 59°06' E 010°14'0 0.0
2019-Jun-13 22:00N 59°06' E 010°14'0 0.0
2019-Jun-13 21:28N 59°06' E 010°14'0 0.0
2019-Jun-13 20:58N 59°06' E 010°14'0 0.0
2019-Jun-13 20:28N 59°06' E 010°14'0 0.0
2019-Jun-13 19:59N 59°06' E 010°14'0 0.3
2019-Jun-13 19:29N 59°06' E 010°14'1 2.6
2019-Jun-13 19:00N 59°08' E 010°14'3 6.7
2019-Jun-13 18:31N 59°04' E 010°15'713.8
2019-Jun-13 18:01N 59°01' E 010°26'816.1
2019-Jun-13 17:31N 59°01' E 010°42'816.0
2019-Jun-13 17:01N 59°00' E 010°57'815.1
2019-Jun-13 16:30N 58°56' E 011°10'0 0.5
2019-Jun-13 16:01N 58°56' E 011°10'4 8.5
2019-Jun-13 15:30N 58°58' E 011°03'714.5
2019-Jun-13 15:01N 59°01' E 010°50'714.9
2019-Jun-13 14:31N 59°01' E 010°36'815.1
2019-Jun-13 14:01N 59°01' E 010°21'713.1
2019-Jun-13 13:31N 59°06' E 010°14'1 2.5
2019-Jun-13 13:00N 59°08' E 010°14'0 0.0
2019-Jun-13 12:31N 59°08' E 010°14'611.9
2019-Jun-13 12:01N 59°02' E 010°16'815.8
2019-Jun-13 11:31N 59°00' E 010°31'815.7
2019-Jun-13 11:01N 59°02' E 010°46'815.4
2019-Jun-13 10:31N 58°59' E 011°00'611.9
2019-Jun-13 10:00N 58°56' E 011°10'0 0.0
2019-Jun-13 09:30N 58°56' E 011°10'0 0.1
2019-Jun-13 09:00N 58°56' E 011°10'612.5
2019-Jun-13 08:31N 58°59' E 010°60'815.4
2019-Jun-13 08:01N 59°02' E 010°46'714.9
2019-Jun-13 07:31N 59°00' E 010°31'714.9
2019-Jun-13 07:01N 59°01' E 010°17'612.4
2019-Jun-13 06:30N 59°07' E 010°14'0 0.4
2019-Jun-13 06:00N 59°08' E 010°14'1 2.7
2019-Jun-13 05:30N 59°06' E 010°14'0 0.2
2019-Jun-13 05:01N 59°06' E 010°14'0 0.0
2019-Jun-13 04:31N 59°06' E 010°14'0 0.0
2019-Jun-13 04:01N 59°06' E 010°14'0 0.0
2019-Jun-13 03:31N 59°06' E 010°14'0 0.0
2019-Jun-13 03:01N 59°06' E 010°14'0 0.0
2019-Jun-13 02:31N 59°06' E 010°14'0 0.0
2019-Jun-13 02:01N 59°06' E 010°14'0 0.0
2019-Jun-13 01:31N 59°06' E 010°14'0 0.0
2019-Jun-13 01:01N 59°06' E 010°14'0 0.0
2019-Jun-13 00:31N 59°06' E 010°14'0 0.0
2019-Jun-13 00:01N 59°06' E 010°14'0 0.0
2019-Jun-12 23:31N 59°06' E 010°14'0 0.0
2019-Jun-12 23:01N 59°06' E 010°14'0 0.0
2019-Jun-12 22:31N 59°06' E 010°14'0 0.0
2019-Jun-12 22:01N 59°06' E 010°14'0 0.0
2019-Jun-12 21:30N 59°06' E 010°14'0 0.0
2019-Jun-12 21:00N 59°06' E 010°14'0 0.0
2019-Jun-12 20:31N 59°06' E 010°14'0 0.0
2019-Jun-12 20:00N 59°06' E 010°14'1 1.3
2019-Jun-12 19:31N 59°07' E 010°14'1 1.6
2019-Jun-12 19:01N 59°08' E 010°14'4 7.5
2019-Jun-12 18:31N 59°04' E 010°15'714.4
2019-Jun-12 18:01N 59°01' E 010°27'917.0
2019-Jun-12 17:31N 59°01' E 010°44'816.2
2019-Jun-12 17:01N 58°59' E 010°59'713.1
2019-Jun-12 16:30N 58°56' E 011°10'0 0.0
2019-Jun-12 16:00N 58°56' E 011°10'4 8.0
2019-Jun-12 15:30N 58°57' E 011°03'714.4
2019-Jun-12 15:01N 59°01' E 010°51'714.6
2019-Jun-12 14:31N 59°01' E 010°37'714.4
2019-Jun-12 14:01N 59°01' E 010°23'612.9
2019-Jun-12 13:30N 59°06' E 010°14'2 4.2
2019-Jun-12 13:01N 59°08' E 010°14'0 0.0
2019-Jun-12 12:31N 59°08' E 010°14'611.1
2019-Jun-12 12:01N 59°02' E 010°16'714.7
2019-Jun-12 11:31N 59°01' E 010°30'815.6
2019-Jun-12 11:00N 59°02' E 010°45'714.7
2019-Jun-12 10:30N 58°60' E 010°58'713.8
2019-Jun-12 10:01N 58°56' E 011°09'1 1.1
2019-Jun-12 09:31N 58°56' E 011°10'0 0.0
2019-Jun-12 09:01N 58°56' E 011°10'612.0
2019-Jun-12 08:31N 58°59' E 011°00'815.2
2019-Jun-12 08:01N 59°02' E 010°46'815.1
2019-Jun-12 07:31N 59°01' E 010°32'714.7
2019-Jun-12 07:01N 59°01' E 010°18'612.3
2019-Jun-12 06:30N 59°07' E 010°14'0 0.6
2019-Jun-12 06:00N 59°08' E 010°14'1 1.8
2019-Jun-12 05:31N 59°07' E 010°14'1 1.1
2019-Jun-12 05:00N 59°06' E 010°14'0 0.0
2019-Jun-12 04:28N 59°06' E 010°14'0 0.0
2019-Jun-12 03:59N 59°06' E 010°14'0 0.0
2019-Jun-12 03:29N 59°06' E 010°14'0 0.0
2019-Jun-12 02:59N 59°06' E 010°14'0 0.0
2019-Jun-12 02:00N 59°06' E 010°14'0 0.0
2019-Jun-12 01:30N 59°06' E 010°14'0 0.0
2019-Jun-12 00:58N 59°06' E 010°14'0 0.0
2019-Jun-12 00:28N 59°06' E 010°14'0 0.0
2019-Jun-11 23:58N 59°06' E 010°14'0 0.0
2019-Jun-11 23:29N 59°06' E 010°14'0 0.0
2019-Jun-11 22:59N 59°06' E 010°14'0 0.0
2019-Jun-11 22:29N 59°06' E 010°14'0 0.0
2019-Jun-11 22:00N 59°06' E 010°14'0 0.0
2019-Jun-11 21:30N 59°06' E 010°14'0 0.0
2019-Jun-11 21:00N 59°06' E 010°14'0 0.0
2019-Jun-11 20:28N 59°06' E 010°14'0 0.0
2019-Jun-11 20:01N 59°06' E 010°14'1 2.8
2019-Jun-11 19:30N 59°08' E 010°14'0 0.0
2019-Jun-11 19:01N 59°08' E 010°14'5 9.4
2019-Jun-11 18:30N 59°03' E 010°15'714.3
2019-Jun-11 18:01N 59°01' E 010°28'815.4
2019-Jun-11 17:31N 59°02' E 010°43'815.3
2019-Jun-11 17:01N 58°60' E 010°58'714.1
2019-Jun-11 16:30N 58°56' E 011°09'1 1.4
2019-Jun-11 16:01N 58°56' E 011°10'4 7.8
2019-Jun-11 15:30N 58°57' E 011°03'714.6
2019-Jun-11 15:00N 59°01' E 010°51'714.7
2019-Jun-11 14:30N 59°01' E 010°37'815.2
2019-Jun-11 14:00N 59°01' E 010°22'612.5
2019-Jun-11 13:30N 59°06' E 010°14'2 3.6
2019-Jun-11 13:00N 59°08' E 010°14'0 0.4
2019-Jun-11 12:31N 59°07' E 010°14'611.1
2019-Jun-11 12:01N 59°02' E 010°16'714.2
2019-Jun-11 11:30N 59°00' E 010°29'714.3
2019-Jun-11 11:01N 59°02' E 010°43'714.3
2019-Jun-11 10:31N 59°00' E 010°57'714.4
2019-Jun-11 10:00N 58°56' E 011°08'1 2.1
2019-Jun-11 09:30N 58°56' E 011°10'0 0.3
2019-Jun-11 09:00N 58°56' E 011°10'613.0
2019-Jun-11 08:30N 58°59' E 010°59'815.4
2019-Jun-11 08:01N 59°02' E 010°46'815.0
2019-Jun-11 07:31N 59°00' E 010°31'714.4
2019-Jun-11 07:01N 59°01' E 010°17'612.3
2019-Jun-11 06:31N 59°07' E 010°14'0 0.9
2019-Jun-11 06:01N 59°08' E 010°14'1 1.3
2019-Jun-11 05:31N 59°07' E 010°14'1 1.5
2019-Jun-11 04:58N 59°06' E 010°14'0 0.0
2019-Jun-11 04:28N 59°06' E 010°14'0 0.0
2019-Jun-11 03:59N 59°06' E 010°14'0 0.0
2019-Jun-11 03:29N 59°06' E 010°14'0 0.0
2019-Jun-11 02:59N 59°06' E 010°14'0 0.0
2019-Jun-11 02:30N 59°06' E 010°14'0 0.0
2019-Jun-11 02:00N 59°06' E 010°14'0 0.0
2019-Jun-11 01:30N 59°06' E 010°14'0 0.0
2019-Jun-11 00:55N 59°06' E 010°14'0 0.0
2019-Jun-11 00:28N 59°06' E 010°14'0 0.0
2019-Jun-10 23:58N 59°06' E 010°14'0 0.0
2019-Jun-10 23:29N 59°06' E 010°14'0 0.0
2019-Jun-10 22:59N 59°06' E 010°14'0 0.0
2019-Jun-10 22:29N 59°06' E 010°14'0 0.0
2019-Jun-10 22:00N 59°06' E 010°14'0 0.0
2019-Jun-10 21:30N 59°06' E 010°14'0 0.0
2019-Jun-10 21:00N 59°06' E 010°14'0 0.0
2019-Jun-10 20:28N 59°06' E 010°14'0 0.0
2019-Jun-10 19:58N 59°06' E 010°14'0 0.7
2019-Jun-10 19:31N 59°06' E 010°14'1 2.2
2019-Jun-10 19:00N 59°08' E 010°14'5 9.7
2019-Jun-10 18:30N 59°03' E 010°15'714.5
2019-Jun-10 18:00N 59°01' E 010°29'815.7
2019-Jun-10 17:30N 59°02' E 010°44'815.8
2019-Jun-10 17:00N 58°60' E 010°59'713.8
2019-Jun-10 16:30N 58°56' E 011°10'0 0.3
2019-Jun-10 16:00N 58°56' E 011°10'3 5.6
2019-Jun-10 15:30N 58°56' E 011°05'815.8
2019-Jun-10 15:00N 59°01' E 010°52'816.4
2019-Jun-10 14:31N 59°01' E 010°36'816.3
2019-Jun-10 14:01N 59°01' E 010°20'713.2
2019-Jun-10 13:31N 59°07' E 010°14'1 2.0
2019-Jun-10 13:00N 59°08' E 010°14'0 0.5
2019-Jun-10 12:30N 59°07' E 010°14'612.3
2019-Jun-10 12:01N 59°02' E 010°17'815.7
2019-Jun-10 11:31N 59°01' E 010°33'815.4
2019-Jun-10 11:01N 59°02' E 010°47'815.6
2019-Jun-10 10:30N 58°59' E 011°01'510.8
2019-Jun-10 10:00N 58°56' E 011°10'0 0.0
2019-Jun-10 09:30N 58°56' E 011°10'0 0.0
2019-Jun-10 09:00N 58°56' E 011°10'612.5
2019-Jun-10 08:30N 58°59' E 011°00'714.5
2019-Jun-10 08:01N 59°02' E 010°47'815.2
2019-Jun-10 07:31N 59°00' E 010°32'815.4
2019-Jun-10 07:00N 59°01' E 010°17'612.5
2019-Jun-10 06:30N 59°07' E 010°14'0 0.5
2019-Jun-10 06:00N 59°08' E 010°14'0 0.1
2019-Jun-10 05:30N 59°08' E 010°14'1 2.7
2019-Jun-10 05:00N 59°06' E 010°14'0 0.0
2019-Jun-10 04:30N 59°06' E 010°14'0 0.0
2019-Jun-10 04:00N 59°06' E 010°14'0 0.0
2019-Jun-10 03:28N 59°06' E 010°14'0 0.0
2019-Jun-10 02:58N 59°06' E 010°14'0 0.0
2019-Jun-10 02:28N 59°06' E 010°14'0 0.0
2019-Jun-10 01:59N 59°06' E 010°14'0 0.0
2019-Jun-10 01:29N 59°06' E 010°14'0 0.0
2019-Jun-10 00:59N 59°06' E 010°14'0 0.0
2019-Jun-10 00:30N 59°06' E 010°14'0 0.0
2019-Jun-10 00:00N 59°06' E 010°14'0 0.0
2019-Jun-09 23:30N 59°06' E 010°14'0 0.0
2019-Jun-09 22:58N 59°06' E 010°14'0 0.0
2019-Jun-09 22:28N 59°06' E 010°14'0 0.0
2019-Jun-09 21:58N 59°06' E 010°14'0 0.0
2019-Jun-09 21:29N 59°06' E 010°14'0 0.0
2019-Jun-09 20:59N 59°06' E 010°14'0 0.0
2019-Jun-09 20:29N 59°06' E 010°14'0 0.0
2019-Jun-09 20:00N 59°06' E 010°14'1 2.9
2019-Jun-09 19:30N 59°08' E 010°14'2 4.9
2019-Jun-09 19:00N 59°05' E 010°14'714.4
2019-Jun-09 18:31N 58°60' E 010°24'714.5
2019-Jun-09 18:01N 58°60' E 010°38'713.3
2019-Jun-09 17:31N 59°01' E 010°50'816.1
2019-Jun-09 17:00N 58°57' E 011°04'3 6.9
2019-Jun-09 16:30N 58°56' E 011°10'0 0.0
2019-Jun-09 16:00N 58°56' E 011°10'510.0
2019-Jun-09 15:30N 58°58' E 011°02'815.6
2019-Jun-09 15:00N 59°02' E 010°48'816.7
2019-Jun-09 14:31N 58°59' E 010°33'816.2
2019-Jun-09 14:00N 59°01' E 010°18'713.0
2019-Jun-09 13:30N 59°07' E 010°14'0 0.9
2019-Jun-09 13:00N 59°08' E 010°14'0 0.4
2019-Jun-09 12:30N 59°07' E 010°14'612.1
2019-Jun-09 12:01N 59°02' E 010°16'714.7
2019-Jun-09 11:31N 58°60' E 010°30'714.8
2019-Jun-09 11:01N 59°02' E 010°44'815.6
2019-Jun-09 10:31N 58°60' E 010°59'713.7
2019-Jun-09 10:00N 58°56' E 011°10'0 0.1
2019-Jun-09 09:31N 58°56' E 011°10'0 0.5
2019-Jun-09 09:00N 58°56' E 011°10'713.5
2019-Jun-09 08:31N 58°60' E 010°59'714.6
2019-Jun-09 08:01N 59°01' E 010°45'714.4
2019-Jun-09 07:31N 58°60' E 010°32'715.0
2019-Jun-09 07:01N 59°01' E 010°17'612.2
2019-Jun-09 06:30N 59°07' E 010°14'0 0.4
2019-Jun-09 06:01N 59°08' E 010°14'0 0.2
2019-Jun-09 05:30N 59°07' E 010°14'1 2.7
2019-Jun-09 05:00N 59°06' E 010°14'0 0.0
2019-Jun-09 04:00N 59°06' E 010°14'0 0.0
2019-Jun-09 03:30N 59°06' E 010°14'0 0.0
2019-Jun-09 03:00N 59°06' E 010°14'0 0.0
2019-Jun-09 02:28N 59°06' E 010°14'0 0.0
2019-Jun-09 01:58N 59°06' E 010°14'0 0.0
2019-Jun-09 01:28N 59°06' E 010°14'0 0.0
2019-Jun-09 00:59N 59°06' E 010°14'0 0.0
2019-Jun-09 00:29N 59°06' E 010°14'0 0.0
2019-Jun-08 23:59N 59°06' E 010°14'0 0.0
2019-Jun-08 23:30N 59°06' E 010°14'0 0.0
2019-Jun-08 23:00N 59°06' E 010°14'0 0.0
2019-Jun-08 22:30N 59°06' E 010°14'0 0.0
2019-Jun-08 21:58N 59°06' E 010°14'0 0.0
2019-Jun-08 21:28N 59°06' E 010°14'0 0.0
2019-Jun-08 20:58N 59°06' E 010°14'0 0.0
2019-Jun-08 20:29N 59°06' E 010°14'0 0.0
2019-Jun-08 19:59N 59°06' E 010°14'1 1.2
2019-Jun-08 19:30N 59°07' E 010°14'1 1.6
2019-Jun-08 19:00N 59°08' E 010°14'611.9
2019-Jun-08 18:31N 59°02' E 010°16'816.2
2019-Jun-08 18:01N 59°00' E 010°32'815.7
2019-Jun-08 17:31N 59°02' E 010°47'816.2
2019-Jun-08 17:00N 58°59' E 011°01'611.2
2019-Jun-08 16:31N 58°56' E 011°10'0 0.0
2019-Jun-08 16:01N 58°56' E 011°10'4 8.5
2019-Jun-08 15:31N 58°58' E 011°03'714.5
2019-Jun-08 15:01N 59°01' E 010°50'815.2
2019-Jun-08 14:31N 59°01' E 010°36'260519.4
2019-Jun-08 14:00N 59°01' E 002°10'249495.0
2019-Jun-08 13:30N 59°07' E 010°14'1 2.0
2019-Jun-08 13:00N 59°08' E 010°14'0 0.4
2019-Jun-08 12:30N 59°07' E 010°14'611.8
2019-Jun-08 12:00N 59°02' E 010°16'714.9
2019-Jun-08 11:30N 59°00' E 010°31'714.9
2019-Jun-08 11:00N 59°02' E 010°45'714.7
2019-Jun-08 10:30N 58°60' E 010°59'713.6
2019-Jun-08 10:00N 58°56' E 011°09'0 0.7
2019-Jun-08 09:30N 58°56' E 011°10'0 0.1
2019-Jun-08 09:00N 58°56' E 011°10'612.6
2019-Jun-08 08:31N 58°59' E 010°60'715.0
2019-Jun-08 08:01N 59°02' E 010°46'815.8
2019-Jun-08 07:30N 59°00' E 010°31'815.6
2019-Jun-08 07:01N 59°02' E 010°16'611.6
2019-Jun-08 06:30N 59°08' E 010°14'0 0.1
2019-Jun-08 06:00N 59°08' E 010°14'1 1.5
2019-Jun-08 05:30N 59°07' E 010°14'1 1.4
2019-Jun-08 05:00N 59°06' E 010°14'0 0.0
2019-Jun-08 04:30N 59°06' E 010°14'0 0.0
2019-Jun-08 04:00N 59°06' E 010°14'0 0.0
2019-Jun-08 03:28N 59°06' E 010°14'0 0.0
2019-Jun-08 02:58N 59°06' E 010°14'0 0.0
2019-Jun-08 02:28N 59°06' E 010°14'0 0.0
2019-Jun-08 01:59N 59°06' E 010°14'0 0.0
2019-Jun-08 01:29N 59°06' E 010°14'0 0.0
2019-Jun-08 00:59N 59°06' E 010°14'0 0.0
2019-Jun-08 00:30N 59°06' E 010°14'0 0.0
2019-Jun-08 00:00N 59°06' E 010°14'0 0.0
2019-Jun-07 23:30N 59°06' E 010°14'0 0.0
2019-Jun-07 22:58N 59°06' E 010°14'0 0.0
2019-Jun-07 22:28N 59°06' E 010°14'0 0.0
2019-Jun-07 21:58N 59°06' E 010°14'0 0.0
2019-Jun-07 21:29N 59°06' E 010°14'0 0.0
2019-Jun-07 20:59N 59°06' E 010°14'0 0.0
2019-Jun-07 20:29N 59°06' E 010°14'0 0.0
2019-Jun-07 20:00N 59°06' E 010°14'1 2.7
2019-Jun-07 19:30N 59°07' E 010°14'0 0.1
2019-Jun-07 19:00N 59°08' E 010°14'611.7
2019-Jun-07 18:31N 59°02' E 010°16'815.7
2019-Jun-07 18:01N 59°01' E 010°31'815.3
2019-Jun-07 17:31N 59°02' E 010°45'815.0
2019-Jun-07 17:00N 58°60' E 010°59'713.1
2019-Jun-07 16:30N 58°56' E 011°10'0 0.5
2019-Jun-07 16:00N 58°56' E 011°10'4 9.1
2019-Jun-07 15:30N 58°58' E 011°02'816.0
2019-Jun-07 15:00N 59°02' E 010°48'816.5
2019-Jun-07 14:30N 59°01' E 010°33'815.9
2019-Jun-07 14:00N 59°01' E 010°17'612.2
2019-Jun-07 13:30N 59°07' E 010°14'0 0.5
2019-Jun-07 13:01N 59°08' E 010°14'0 0.2
2019-Jun-07 12:30N 59°07' E 010°14'612.1
2019-Jun-07 12:01N 59°02' E 010°16'815.0
2019-Jun-07 11:30N 59°00' E 010°31'714.7
2019-Jun-07 11:00N 59°02' E 010°45'714.3
2019-Jun-07 10:30N 58°60' E 010°58'713.8
2019-Jun-07 10:00N 58°56' E 011°09'1 1.5
2019-Jun-07 09:31N 58°56' E 011°10'0 0.3
2019-Jun-07 09:00N 58°56' E 011°10'713.2
2019-Jun-07 08:30N 58°59' E 010°59'714.6
2019-Jun-07 08:00N 59°02' E 010°45'714.9
2019-Jun-07 07:30N 59°01' E 010°31'714.6
2019-Jun-07 07:00N 59°01' E 010°17'612.2
2019-Jun-07 06:30N 59°07' E 010°14'0 0.5
2019-Jun-07 06:00N 59°08' E 010°14'1 2.0
2019-Jun-07 05:30N 59°07' E 010°14'0 0.7
2019-Jun-07 04:57N 59°06' E 010°14'0 0.0
2019-Jun-07 04:30N 59°06' E 010°14'0 0.0
2019-Jun-07 04:00N 59°06' E 010°14'0 0.0
2019-Jun-07 03:28N 59°06' E 010°14'0 0.0
2019-Jun-07 02:58N 59°06' E 010°14'0 0.0
2019-Jun-07 02:25N 59°06' E 010°14'0 0.0
2019-Jun-07 01:59N 59°06' E 010°14'0 0.0
2019-Jun-07 01:29N 59°06' E 010°14'0 0.0
2019-Jun-07 00:56N 59°06' E 010°14'0 0.0
2019-Jun-07 00:27N 59°06' E 010°14'0 0.0
2019-Jun-07 00:00N 59°06' E 010°14'0 0.0
2019-Jun-06 23:30N 59°06' E 010°14'0 0.0
2019-Jun-06 22:58N 59°06' E 010°14'0 0.0
2019-Jun-06 22:28N 59°06' E 010°14'0 0.0
2019-Jun-06 21:58N 59°06' E 010°14'0 0.0
2019-Jun-06 21:29N 59°06' E 010°14'0 0.0
2019-Jun-06 20:59N 59°06' E 010°14'0 0.0
2019-Jun-06 20:29N 59°06' E 010°14'0 0.0
2019-Jun-06 20:00N 59°06' E 010°14'0 0.2
2019-Jun-06 19:30N 59°06' E 010°14'1 2.7
2019-Jun-06 19:00N 59°08' E 010°14'5 9.3
2019-Jun-06 18:30N 59°03' E 010°15'815.6
2019-Jun-06 18:00N 59°00' E 010°29'816.7
2019-Jun-06 17:30N 59°02' E 010°45'816.4
2019-Jun-06 17:00N 58°59' E 011°00'612.1
2019-Jun-06 16:30N 58°56' E 011°10'0 0.0
2019-Jun-06 16:00N 58°56' E 011°10'4 8.3
2019-Jun-06 15:30N 58°58' E 011°03'714.6
2019-Jun-06 15:01N 59°01' E 010°50'714.8
2019-Jun-06 14:30N 59°01' E 010°36'815.1
2019-Jun-06 14:01N 59°01' E 010°21'612.6
2019-Jun-06 13:30N 59°06' E 010°14'2 3.2
2019-Jun-06 13:01N 59°08' E 010°14'0 0.2
2019-Jun-06 12:30N 59°07' E 010°14'510.9
2019-Jun-06 12:01N 59°02' E 010°15'714.6
2019-Jun-06 11:30N 59°01' E 010°29'714.6
2019-Jun-06 11:01N 59°01' E 010°43'713.9
2019-Jun-06 10:30N 59°00' E 010°57'714.1
2019-Jun-06 10:00N 58°56' E 011°08'1 2.4
2019-Jun-06 09:31N 58°56' E 011°10'0 0.1
2019-Jun-06 09:01N 58°56' E 011°10'612.6
2019-Jun-06 08:31N 58°59' E 010°60'815.0
2019-Jun-06 08:00N 59°02' E 010°46'714.8
2019-Jun-06 07:30N 59°00' E 010°32'714.6
2019-Jun-06 07:01N 59°01' E 010°18'612.4
2019-Jun-06 06:30N 59°07' E 010°14'0 0.7
2019-Jun-06 06:00N 59°08' E 010°14'1 2.6
2019-Jun-06 05:31N 59°06' E 010°14'0 0.3
2019-Jun-06 04:59N 59°06' E 010°14'0 0.0
2019-Jun-06 04:26N 59°06' E 010°14'0 0.0
2019-Jun-06 03:57N 59°06' E 010°14'0 0.0
2019-Jun-06 03:30N 59°06' E 010°14'0 0.0
2019-Jun-06 02:57N 59°06' E 010°14'0 0.0
2019-Jun-06 02:28N 59°06' E 010°14'0 0.0
2019-Jun-06 01:58N 59°06' E 010°14'0 0.0
2019-Jun-06 01:28N 59°06' E 010°14'  

Dump ship's entire track history